• Join FlightAware (Why Join?)
  • Login
  • US Flag 
03:20PM EDT


 

Airport Tracker/Info


-or-


 

Live Flight TrackerFlight Track Log ✈ BJS542 ✈ 02-May-2013 ✈ MYBC / CCZ - KAPF

Flight Track Log - Related Links

Times and Time Zones

All times are in EDT time to prevent confusion due to time zone crossing. See the BJS542 flight status page for this flight to view local times or setup timezone preferences in your user account.

Time Position Orientation Groundspeed Altitude Reporting Facility
EDT Latitude Longitude Course Direction KTS MPH feet Rate Location/Type
03:59PM 25.4592 -78.0097 284° West 327 376 11,500  Level Miami Center
04:00PM 25.4753 -78.1042 281° West 327 376 15,400 2,220 Climbing Miami Center
04:01PM 25.5267 -78.1944 302° West 322 371 16,000 300 Climbing Miami Center
04:02PM 25.5486 -78.2961 283° West 339 390 16,000  Level Miami Center
04:03PM 25.5291 -78.4764 281° West  Level FlightAware Approximate
04:03PM 25.5436 -78.3972 267° West 339 390 16,100  Level Miami Center
04:04PM 25.5474 -78.5630 284° West  Level FlightAware Approximate
04:04PM 25.4800 -78.4864 232° Southwest 330 380 17,600  Level Miami Center
04:05PM 25.4308 -78.5800 240° Southwest 342 394 20,700 2,160 Climbing Miami Center
04:06PM 25.4294 -78.6928 269° West 346 398 22,000 600 Climbing Miami Center
04:07PM 25.4364 -78.8103 274° West 370 426 22,000  Level Miami Center
04:08PM 25.4386 -78.9344 271° West 393 452 22,000  Level Miami Center
04:09PM 25.4453 -79.0611 273° West 393 452 22,000  Level Miami Center
04:10PM 25.4497 -79.1786 272° West 388 447 22,000  Level Miami Center
04:11PM 25.4500 -79.2914 270° West 383 441 22,000  Level Miami Center
04:12PM 25.4544 -79.3997 273° West 372 428 22,000  Level Miami Center
04:13PM 25.4547 -79.5008 270° West 351 404 22,000  Level Miami Center
04:14PM 25.3911 -79.5617 221° Southwest 298 343 22,000  Level Miami Center
04:15PM 25.3064 -79.6150 210° Southwest 312 359 22,000 300 Level Miami Center
04:16PM 25.2197 -79.6658 208° Southwest 328 377 22,700 900 Climbing Miami Center
04:17PM 25.1333 -79.7142 207° Southwest 346 398 23,900 1,680 Climbing Miami Center
04:18PM 25.0361 -79.7647 205° Southwest 358 412 26,100 1,500 Climbing Miami Center
04:19PM 24.9347 -79.8197 206° Southwest 385 443 27,000 420 Climbing Miami Center
04:20PM 24.8228 -79.8786 206° Southwest 421 484 27,000  Level Miami Center
04:21PM 24.7033 -79.8986 189° South 437 503 27,000  Level Miami Center
04:22PM 24.5847 -79.8753 170° South 426 490 27,000  Level Miami Center
04:23PM 24.4747 -79.8406 164° South 418 481 27,000 -60 Level Miami Center
04:24PM 24.3625 -79.8061 164° South 418 481 26,900  Descending Miami Center
04:25PM 24.2539 -79.8056 180° South 392 451 27,000 1,320 Climbing Miami Center
04:26PM 24.1711 -79.8653 213° Southwest 358 412 29,600 2,280 Climbing Miami Center
04:27PM 24.1272 -79.9689 245° Southwest 341 392 31,600 1,980 Climbing Miami Center
04:28PM 24.1458 -80.0786 281° West 329 379 33,600 1,680 Climbing Miami Center
04:29PM 24.2128 -80.1736 308° West 340 391 35,000 660 Climbing Miami Center
04:30PM 24.2986 -80.2625 317° Northwest 378 435 35,000  Level Miami Center
04:31PM 24.3861 -80.3561 316° Northwest 405 466 35,000  Level Miami Center
04:32PM 24.4575 -80.4267 318° Northwest 410 472 35,000  Level Miami Center
04:33PM 24.5411 -80.5114 317° Northwest 405 466 35,000  Level Miami Center
04:34PM 24.6247 -80.5983 317° Northwest 405 466 35,000  Level Miami Center
04:35PM 24.7203 -80.7017 316° Northwest 420 483 35,000 -780 Level Miami Center
04:36PM 24.8036 -80.7892 316° Northwest 420 483 33,500 -1,980 Descending Miami Center
04:37PM 24.8889 -80.8764 317° Northwest 420 483 31,100 -2,580 Descending Miami Center
04:38PM 24.9703 -80.9617 316° Northwest 415 478 28,400 -2,460 Descending Miami Center
04:39PM 25.0433 -81.0375 317° Northwest 410 472 26,200 -2,640 Descending Miami Center
04:41PM 25.1682 -81.1670 317° Northwest  Level FlightAware Approximate
04:44PM 25.4361 -81.4464 North 372 428 12,700  Level Miami Center
04:45PM 25.4947 -81.5108 North 338 389 10,900 -1,860 Descending Miami Center
04:46PM 25.5944 -81.5188 340° North  Level Estimated
04:46PM 25.5711 -81.5436 339° North 297 342 9,000  Level Miami Center
04:47PM 25.6389 -81.5717 340° North 278 320 7,700 -1,560 Descending Miami Center
04:48PM 25.7578 -81.6064 340° North  Level FlightAware Approximate
04:48PM 25.7175 -81.5978 343° North 273 314 5,900  Level Miami Center
04:49PM 25.8535 -81.6500 North  Level FlightAware Approximate
04:49PM 25.7833 -81.6281 338° Northwest 267 307 5,900  Level Miami Center
04:50PM 25.8575 -81.6564 341° North 267 307 5,800 -960 Descending Miami Center
04:51PM 25.9236 -81.6844 339° North 261 300 4,000 -1,080 Descending Miami Center
04:52PM 25.9828 -81.7192 332° Northwest 254 292 3,700 -1,080 Descending Miami Center
04:53PM 26.1500 -81.7667 North  Level FlightAware Approximate
04:53PM 26.0314 -81.7697 317° Northwest 242 278 1,900  Level Miami Center
04:54PM 26.0822 -81.8064 327° Northwest 232 267 1,200 -660 Descending Miami Center
04:55PM 26.1283 -81.8036 North 186 214 600 -600 Descending Miami Center
04:56PM 26.1661 -81.7983 North 141 162 100 -540 Descending Miami Center
04:58PM 26.1524 -81.7756 North  Level Estimated